createdAt,value
2023-05-17T00:01:23.785Z,100417.41
2023-05-17T00:04:28.829Z,100405.41
2023-05-17T00:07:34.283Z,100412.13
2023-05-17T00:10:39.294Z,100417.13
2023-05-17T00:13:46.035Z,100408.94
2023-05-17T00:16:52.729Z,100410.81
2023-05-17T00:19:58.189Z,100413.25
2023-05-17T00:23:03.212Z,100416.56
2023-05-17T00:26:08.305Z,100413.59
2023-05-17T00:29:14.644Z,100416.13
2023-05-17T00:32:21.201Z,100415.53
2023-05-17T00:35:26.918Z,100417.91
2023-05-17T00:38:32.141Z,100416.31
2023-05-17T00:41:37.474Z,100411.03
2023-05-17T00:44:44.453Z,100418.75
2023-05-17T00:47:49.474Z,100419.00
2023-05-17T00:50:54.635Z,100410.41
2023-05-17T00:53:59.977Z,100429.91
2023-05-17T00:57:06.580Z,100408.34
2023-05-17T01:00:15.719Z,100407.84
2023-05-17T01:03:22.729Z,100411.66
2023-05-17T01:06:29.215Z,100410.69
2023-05-17T01:09:34.434Z,100416.44
2023-05-17T01:12:52.440Z,100413.25
2023-05-17T01:16:06.900Z,100406.94
2023-05-17T01:19:20.799Z,100410.19
2023-05-17T01:22:33.952Z,100398.25
2023-05-17T01:25:51.049Z,100407.69
2023-05-17T01:28:58.897Z,100394.09
2023-05-17T01:32:05.222Z,100403.19
2023-05-17T01:35:13.698Z,100404.63
2023-05-17T01:38:18.752Z,100405.91
2023-05-17T01:41:28.514Z,100394.25
2023-05-17T01:44:39.689Z,100402.22
2023-05-17T01:47:50.023Z,100389.53
2023-05-17T01:50:56.694Z,100392.63
2023-05-17T01:54:05.320Z,100394.25
2023-05-17T01:57:12.132Z,100387.25
2023-05-17T02:00:19.727Z,100386.97
2023-05-17T02:03:25.288Z,100384.81
2023-05-17T02:06:33.241Z,100388.78
2023-05-17T02:09:38.250Z,100393.47
2023-05-17T02:12:47.338Z,100392.78
2023-05-17T02:15:53.727Z,100392.72
2023-05-17T02:18:58.960Z,100387.72
2023-05-17T02:22:04.047Z,100394.75
2023-05-17T02:25:10.177Z,100387.13
2023-05-17T02:28:18.381Z,100386.28
2023-05-17T02:31:26.758Z,100382.13
2023-05-17T02:34:31.852Z,100386.16
2023-05-17T02:37:37.178Z,100394.78
2023-05-17T02:40:43.697Z,100391.69
2023-05-17T02:43:48.759Z,100379.53
2023-05-17T02:46:55.132Z,100390.44
2023-05-17T02:50:00.319Z,100401.94
2023-05-17T02:53:06.004Z,100403.88
2023-05-17T02:56:13.551Z,100402.41
2023-05-17T02:59:18.537Z,100401.81
2023-05-17T03:02:25.339Z,100399.50
2023-05-17T03:05:30.438Z,100397.41
2023-05-17T03:08:35.617Z,100399.16
2023-05-17T03:11:41.409Z,100396.25
2023-05-17T03:14:54.196Z,100403.44
2023-05-17T03:18:01.918Z,100403.00
2023-05-17T03:21:07.952Z,100406.16
2023-05-17T03:24:13.037Z,100400.81
2023-05-17T03:27:19.016Z,100397.59
2023-05-17T03:30:24.603Z,100394.16
2023-05-17T03:33:31.502Z,100398.16
2023-05-17T03:36:37.514Z,100389.91
2023-05-17T03:39:43.595Z,100386.66
2023-05-17T03:42:49.092Z,100397.09
2023-05-17T03:45:54.125Z,100381.34
2023-05-17T03:49:00.774Z,100383.53
2023-05-17T03:52:07.315Z,100375.56
2023-05-17T03:55:13.667Z,100380.94
2023-05-17T03:58:19.043Z,100366.53
2023-05-17T04:01:24.073Z,100356.94
2023-05-17T04:04:30.610Z,100366.72
2023-05-17T04:07:35.641Z,100370.00
2023-05-17T04:10:42.431Z,100365.03
2023-05-17T04:13:47.438Z,100360.88
2023-05-17T04:16:53.526Z,100363.94
2023-05-17T04:19:59.902Z,100373.78
2023-05-17T04:23:04.999Z,100362.28
2023-05-17T04:26:15.143Z,100361.38
2023-05-17T04:29:23.844Z,100366.03
2023-05-17T04:32:29.762Z,100364.72
2023-05-17T04:35:37.811Z,100360.69
2023-05-17T04:38:43.749Z,100355.28
2023-05-17T04:41:52.446Z,100345.63
2023-05-17T04:44:58.461Z,100341.25
2023-05-17T04:48:04.968Z,100341.75
2023-05-17T04:51:13.149Z,100333.22
2023-05-17T04:54:18.454Z,100322.75
2023-05-17T04:57:23.624Z,100315.34
2023-05-17T05:00:37.715Z,100330.81
2023-05-17T05:03:44.534Z,100343.50
2023-05-17T05:06:53.270Z,100361.25
2023-05-17T05:09:58.671Z,100363.31
2023-05-17T05:13:03.895Z,100371.84
2023-05-17T05:16:09.781Z,100382.75
2023-05-17T05:19:16.022Z,100391.38
2023-05-17T05:22:23.254Z,100393.63
2023-05-17T05:25:29.509Z,100399.00
2023-05-17T05:28:34.897Z,100397.09
2023-05-17T05:31:40.054Z,100392.56
2023-05-17T05:34:46.904Z,100395.47
2023-05-17T05:37:55.023Z,100394.50
2023-05-17T05:41:00.041Z,100396.06
2023-05-17T05:44:05.502Z,100402.69
2023-05-17T05:47:11.286Z,100400.31
2023-05-17T05:50:16.370Z,100404.75
2023-05-17T05:53:25.163Z,100399.25
2023-05-17T05:56:33.124Z,100397.84
2023-05-17T05:59:38.265Z,100385.66
2023-05-17T06:02:43.916Z,100383.31
2023-05-17T06:05:49.027Z,100373.47
2023-05-17T06:08:58.150Z,100375.38
2023-05-17T06:12:04.573Z,100378.44
2023-05-17T06:15:10.866Z,100384.28
2023-05-17T06:18:15.915Z,100397.47
2023-05-17T06:21:23.600Z,100403.53
2023-05-17T06:24:30.016Z,100413.50
2023-05-17T06:27:35.188Z,100411.09
2023-05-17T06:30:40.289Z,100416.88
2023-05-17T06:33:45.504Z,100409.59
2023-05-17T06:36:50.479Z,100406.66
2023-05-17T06:43:14.488Z,100401.31
2023-05-17T06:46:19.685Z,100396.59
2023-05-17T06:49:25.436Z,100398.22
2023-05-17T06:52:30.461Z,100407.28
2023-05-17T06:55:36.871Z,100399.97
2023-05-17T06:58:42.085Z,100404.75
2023-05-17T07:01:47.133Z,100404.75
2023-05-17T07:04:52.184Z,100417.81
2023-05-17T07:07:57.304Z,100418.47
2023-05-17T07:11:04.386Z,100428.56
2023-05-17T07:14:09.403Z,100426.34
2023-05-17T07:17:14.456Z,100430.38
2023-05-17T07:20:19.440Z,100437.75
2023-05-17T07:23:24.627Z,100438.41
2023-05-17T07:26:31.992Z,100450.66
2023-05-17T07:29:37.102Z,100447.53
2023-05-17T07:32:42.104Z,100454.78
2023-05-17T07:35:47.231Z,100451.06
2023-05-17T07:38:52.521Z,100469.53
2023-05-17T07:41:58.899Z,100476.22
2023-05-17T07:45:04.781Z,100481.69
2023-05-17T07:48:09.973Z,100495.53
2023-05-17T07:51:15.107Z,100515.03
2023-05-17T07:54:28.066Z,100511.13
2023-05-17T07:57:34.756Z,100515.47
2023-05-17T08:00:41.138Z,100528.81
2023-05-17T08:03:48.320Z,100540.50
2023-05-17T08:06:55.357Z,100551.84
2023-05-17T08:10:00.317Z,100564.97
2023-05-17T08:13:08.008Z,100573.56
2023-05-17T08:16:15.103Z,100582.53
2023-05-17T08:19:20.629Z,100589.03
2023-05-17T08:22:26.499Z,100589.81
2023-05-17T08:25:32.240Z,100603.00
2023-05-17T08:28:39.001Z,100621.09
2023-05-17T08:31:44.003Z,100623.63
2023-05-17T08:34:49.045Z,100635.72
2023-05-17T08:37:54.130Z,100640.56
2023-05-17T08:41:00.054Z,100647.41
2023-05-17T08:44:07.502Z,100652.53
2023-05-17T08:47:14.720Z,100651.25
2023-05-17T08:50:22.059Z,100653.72
2023-05-17T08:53:27.501Z,100667.53
2023-05-17T08:56:33.099Z,100667.63
2023-05-17T08:59:40.472Z,100680.09
2023-05-17T09:02:46.084Z,100692.44
2023-05-17T09:05:53.819Z,100699.91
2023-05-17T09:09:01.569Z,100698.50
2023-05-17T09:12:08.747Z,100694.22
2023-05-17T09:15:16.777Z,100711.13
2023-05-17T09:18:25.308Z,100714.16
2023-05-17T09:21:31.879Z,100710.97
2023-05-17T09:24:38.118Z,100721.06
2023-05-17T09:27:43.346Z,100730.16
2023-05-17T09:30:50.690Z,100743.53
2023-05-17T09:33:55.935Z,100756.44
2023-05-17T09:37:02.592Z,100776.19
2023-05-17T09:40:09.592Z,100780.59
2023-05-17T09:43:17.061Z,100788.56
2023-05-17T09:46:23.566Z,100794.38
2023-05-17T09:49:29.731Z,100797.63
2023-05-17T09:52:37.755Z,100797.81
2023-05-17T09:55:43.400Z,100799.50
2023-05-17T09:58:49.389Z,100803.38
2023-05-17T10:01:56.438Z,100821.97
2023-05-17T10:05:02.125Z,100817.81
2023-05-17T10:08:07.857Z,100823.84
2023-05-17T10:11:14.303Z,100818.84
2023-05-17T10:14:23.712Z,100823.88
2023-05-17T10:17:30.824Z,100825.28
2023-05-17T10:20:35.929Z,100805.03
2023-05-17T10:23:42.204Z,100821.72
2023-05-17T10:26:47.244Z,100834.66
2023-05-17T10:29:52.388Z,100842.47
2023-05-17T10:32:58.997Z,100853.28
2023-05-17T10:36:04.522Z,100857.59
2023-05-17T10:39:10.759Z,100861.38
2023-05-17T10:42:17.810Z,100857.34
2023-05-17T10:45:25.494Z,100852.00
2023-05-17T10:48:32.124Z,100858.81
2023-05-17T10:51:38.765Z,100870.94
2023-05-17T10:54:45.000Z,100877.84
2023-05-17T10:58:16.257Z,100886.00
2023-05-17T11:01:55.391Z,100900.09
2023-05-17T11:05:02.734Z,100906.38
2023-05-17T11:08:19.287Z,100902.44
2023-05-17T11:11:25.287Z,100908.22
2023-05-17T11:14:33.481Z,100918.38
2023-05-17T11:17:50.275Z,100921.00
2023-05-17T11:21:09.540Z,100931.84
2023-05-17T11:24:17.425Z,100934.03
2023-05-17T11:27:27.478Z,100939.78
2023-05-17T11:30:33.424Z,100948.34
2023-05-17T11:33:43.639Z,100959.19
2023-05-17T11:36:54.573Z,100970.78
2023-05-17T11:40:07.162Z,100970.00
2023-05-17T11:43:13.962Z,100966.81
2023-05-17T11:46:23.134Z,100978.09
2023-05-17T11:52:42.410Z,100995.03
2023-05-17T11:55:49.005Z,101007.22
2023-05-17T11:58:54.198Z,100997.75
2023-05-17T12:01:59.250Z,101005.66
2023-05-17T12:05:04.353Z,101023.06
2023-05-17T12:08:10.992Z,101021.16
2023-05-17T12:11:18.012Z,101022.16
2023-05-17T12:14:22.992Z,101022.81
2023-05-17T12:17:37.125Z,101035.88
2023-05-17T12:20:55.693Z,101040.81
2023-05-17T12:24:02.102Z,101051.41
2023-05-17T12:27:07.524Z,101060.25
2023-05-17T12:30:17.294Z,101072.34
2023-05-17T12:33:22.506Z,101075.56
2023-05-17T12:36:28.537Z,101080.22
2023-05-17T12:39:34.932Z,101093.22
2023-05-17T12:42:43.915Z,101098.88
2023-05-17T12:45:49.714Z,101108.63
2023-05-17T12:48:55.039Z,101108.84
2023-05-17T12:52:06.255Z,101121.16
2023-05-17T12:55:16.538Z,101122.75
2023-05-17T12:58:21.756Z,101130.34
2023-05-17T13:01:26.801Z,101138.94
2023-05-17T13:04:33.364Z,101140.56
2023-05-17T13:07:38.808Z,101136.53
2023-05-17T13:10:45.516Z,101151.91
2023-05-17T13:13:50.650Z,101149.44
2023-05-17T13:16:56.014Z,101159.91
2023-05-17T13:20:02.177Z,101162.63
2023-05-17T13:23:08.454Z,101175.78
2023-05-17T13:26:15.158Z,101182.69
2023-05-17T13:29:35.288Z,101177.44
2023-05-17T13:32:44.647Z,101177.31
2023-05-17T13:35:49.845Z,101195.50
2023-05-17T13:38:56.821Z,101203.81
2023-05-17T13:42:03.638Z,101221.84
2023-05-17T13:45:11.753Z,101212.38
2023-05-17T13:48:17.577Z,101219.94
2023-05-17T13:51:22.702Z,101219.84
2023-05-17T13:54:27.860Z,101236.19
2023-05-17T13:57:34.357Z,101231.06
2023-05-17T14:00:41.320Z,101239.56
2023-05-17T14:03:46.521Z,101245.72
2023-05-17T14:06:55.068Z,101251.63
2023-05-17T14:10:00.940Z,101248.03
2023-05-17T14:13:07.920Z,101249.47
2023-05-17T14:16:13.800Z,101253.03
2023-05-17T14:19:18.833Z,101258.31
2023-05-17T14:22:23.887Z,101267.00
2023-05-17T14:25:29.045Z,101275.53
2023-05-17T14:28:38.336Z,101286.31
2023-05-17T14:31:43.502Z,101280.84
2023-05-17T14:34:48.477Z,101298.88
2023-05-17T14:37:53.554Z,101290.22
2023-05-17T14:40:59.054Z,101294.44
2023-05-17T14:44:05.608Z,101301.19
2023-05-17T14:47:11.617Z,101318.44
2023-05-17T14:50:16.687Z,101314.75
2023-05-17T14:53:21.727Z,101321.03
2023-05-17T14:56:27.066Z,101320.63
2023-05-17T14:59:33.469Z,101330.59
2023-05-17T15:02:38.554Z,101337.63
2023-05-17T15:05:43.592Z,101346.88
2023-05-17T15:08:48.884Z,101361.38
2023-05-17T15:11:54.602Z,101354.56
2023-05-17T15:15:01.178Z,101374.22
2023-05-17T15:18:06.779Z,101372.38
2023-05-17T15:21:12.483Z,101386.16
2023-05-17T15:24:17.997Z,101396.22
2023-05-17T15:27:23.132Z,101396.78
2023-05-17T15:30:29.552Z,101397.28
2023-05-17T15:33:34.779Z,101407.81
2023-05-17T15:36:39.847Z,101420.47
2023-05-17T15:39:44.857Z,101416.81
2023-05-17T15:42:51.211Z,101414.88
2023-05-17T15:45:57.325Z,101419.75
2023-05-17T15:49:02.459Z,101429.19
2023-05-17T15:52:09.005Z,101427.03
2023-05-17T15:55:14.058Z,101434.13
2023-05-17T15:58:19.517Z,101429.75
2023-05-17T16:01:26.002Z,101423.09
2023-05-17T16:04:31.429Z,101426.75
2023-05-17T16:07:36.692Z,101433.69
2023-05-17T16:10:41.730Z,101435.88
2023-05-17T16:13:46.737Z,101440.16
2023-05-17T16:16:53.641Z,101449.31
2023-05-17T16:19:58.918Z,101464.78
2023-05-17T16:23:04.037Z,101459.59
2023-05-17T16:26:09.971Z,101468.81
2023-05-17T16:29:16.955Z,101473.19
2023-05-17T16:32:23.507Z,101474.94
2023-05-17T16:35:29.127Z,101480.22
2023-05-17T16:38:34.381Z,101487.97
2023-05-17T16:41:39.642Z,101499.78
2023-05-17T16:44:44.647Z,101492.44
2023-05-17T16:47:51.150Z,101499.56
2023-05-17T16:50:56.305Z,101498.72
2023-05-17T16:54:01.594Z,101511.44
2023-05-17T16:57:08.534Z,101501.03
2023-05-17T17:00:15.743Z,101501.94
2023-05-17T17:03:22.213Z,101510.44
2023-05-17T17:06:28.641Z,101519.00
2023-05-17T17:09:33.714Z,101512.19
2023-05-17T17:12:39.106Z,101526.78
2023-05-17T17:15:44.453Z,101539.56
2023-05-17T17:18:50.944Z,101541.47
2023-05-17T17:21:56.244Z,101546.56
2023-05-17T17:25:01.369Z,101547.47
2023-05-17T17:28:06.882Z,101551.56
2023-05-17T17:31:14.174Z,101559.34
2023-05-17T17:34:20.560Z,101561.81
2023-05-17T17:37:25.597Z,101574.72
2023-05-17T17:40:30.938Z,101569.00
2023-05-17T17:43:36.363Z,101568.22
2023-05-17T17:46:41.479Z,101560.00
2023-05-17T17:49:48.196Z,101570.84
2023-05-17T17:52:53.342Z,101577.38
2023-05-17T17:55:58.432Z,101589.13
2023-05-17T17:59:03.564Z,101598.59
2023-05-17T18:02:09.169Z,101611.44
2023-05-17T18:05:15.734Z,101607.78
2023-05-17T18:08:21.028Z,101607.00
2023-05-17T18:11:26.217Z,101615.44
2023-05-17T18:14:31.223Z,101616.28
2023-05-17T18:17:36.448Z,101626.63
2023-05-17T18:20:43.443Z,101630.13
2023-05-17T18:23:48.623Z,101631.84
2023-05-17T18:26:54.216Z,101647.25
2023-05-17T18:29:59.577Z,101646.38
2023-05-17T18:33:06.827Z,101648.97
2023-05-17T18:36:13.825Z,101659.16
2023-05-17T18:39:18.836Z,101677.03
2023-05-17T18:42:25.113Z,101682.91
2023-05-17T18:45:31.874Z,101701.69
2023-05-17T18:48:37.080Z,101706.81
2023-05-17T18:51:43.529Z,101705.09
2023-05-17T18:54:48.796Z,101712.81
2023-05-17T18:57:53.906Z,101713.59
2023-05-17T19:01:00.253Z,101718.75
2023-05-17T19:04:05.631Z,101730.75
2023-05-17T19:07:13.024Z,101740.16
2023-05-17T19:10:18.471Z,101743.53
2023-05-17T19:13:23.509Z,101758.84
2023-05-17T19:16:28.659Z,101756.31
2023-05-17T19:19:33.755Z,101758.88
2023-05-17T19:22:40.707Z,101760.56
2023-05-17T19:25:45.882Z,101771.69
2023-05-17T19:28:51.193Z,101769.97
2023-05-17T19:31:56.516Z,101770.81
2023-05-17T19:35:02.412Z,101774.22
2023-05-17T19:38:08.968Z,101784.38
2023-05-17T19:41:14.084Z,101789.50
2023-05-17T19:44:19.162Z,101803.94
2023-05-17T19:47:24.235Z,101797.16
2023-05-17T19:50:29.780Z,101806.66
2023-05-17T19:53:50.867Z,101819.44
2023-05-17T19:56:57.668Z,101821.19
2023-05-17T20:00:03.107Z,101823.75
2023-05-17T20:03:09.958Z,101825.50
2023-05-17T20:06:15.410Z,101830.59
2023-05-17T20:09:21.953Z,101839.88
2023-05-17T20:12:27.560Z,101835.66
2023-05-17T20:15:32.627Z,101842.47
2023-05-17T20:18:37.761Z,101841.66
2023-05-17T20:25:25.451Z,101850.13
2023-05-17T20:28:30.765Z,101853.66
2023-05-17T20:31:36.764Z,101857.88
2023-05-17T20:34:41.933Z,101862.94
2023-05-17T20:37:46.949Z,101879.13
2023-05-17T20:40:53.783Z,101885.94
2023-05-17T20:43:59.226Z,101884.31
2023-05-17T20:47:08.826Z,101891.13
2023-05-17T20:50:14.321Z,101892.88
2023-05-17T20:53:19.817Z,101885.22
2023-05-17T20:56:26.160Z,101886.03
2023-05-17T20:59:31.179Z,101888.56
2023-05-17T21:02:36.408Z,101896.22
2023-05-17T21:05:41.527Z,101886.94
2023-05-17T21:08:47.112Z,101896.28
2023-05-17T21:11:53.625Z,101909.03
2023-05-17T21:15:15.182Z,101903.94
2023-05-17T21:18:21.403Z,101898.03
2023-05-17T21:21:26.405Z,101905.63
2023-05-17T21:24:31.428Z,101903.94
2023-05-17T21:27:38.176Z,101915.00
2023-05-17T21:30:43.345Z,101903.16
2023-05-17T21:33:49.697Z,101909.09
2023-05-17T21:36:54.898Z,101906.56
2023-05-17T21:40:00.169Z,101915.91
2023-05-17T21:43:06.952Z,101921.88
2023-05-17T21:46:12.490Z,101922.72
2023-05-17T21:49:17.513Z,101933.75
2023-05-17T21:52:22.606Z,101921.03
2023-05-17T21:55:32.363Z,101920.19
2023-05-17T21:58:47.464Z,101931.19
2023-05-17T22:01:52.501Z,101941.41
2023-05-17T22:04:57.889Z,101945.63
2023-05-17T22:08:02.874Z,101948.19
2023-05-17T22:11:08.003Z,101956.69
2023-05-17T22:14:14.438Z,101963.50
2023-05-17T22:17:19.487Z,101959.25
2023-05-17T22:20:26.359Z,101972.81
2023-05-17T22:23:31.501Z,101971.13
2023-05-17T22:26:36.512Z,101988.09
2023-05-17T22:29:43.896Z,101983.84
2023-05-17T22:32:51.054Z,101990.66
2023-05-17T22:35:56.367Z,102001.72
2023-05-17T22:39:01.517Z,101998.28
2023-05-17T22:42:07.525Z,102008.50
2023-05-17T22:45:14.681Z,102003.41
2023-05-17T22:48:20.787Z,101999.16
2023-05-17T22:51:26.002Z,102008.50
2023-05-17T22:54:31.085Z,102006.78
2023-05-17T22:57:36.167Z,102008.50
2023-05-17T23:00:42.967Z,102014.44
2023-05-17T23:03:48.111Z,102012.75
2023-05-17T23:06:53.982Z,102014.44
2023-05-17T23:09:58.984Z,102022.91
2023-05-17T23:13:04.561Z,102023.75
2023-05-17T23:16:13.976Z,102017.81
2023-05-17T23:19:19.266Z,102039.03
2023-05-17T23:22:24.264Z,102028.00
2023-05-17T23:25:29.702Z,102033.97
2023-05-17T23:28:35.588Z,102030.56
2023-05-17T23:31:44.905Z,102042.47
2023-05-17T23:34:50.465Z,102047.56
2023-05-17T23:37:55.493Z,102063.69
2023-05-17T23:41:01.099Z,102072.19
2023-05-17T23:44:06.458Z,102078.13
2023-05-17T23:47:13.469Z,102079.81
2023-05-17T23:50:18.523Z,102083.22
2023-05-17T23:53:26.166Z,102090.00
2023-05-17T23:56:31.258Z,102101.88
2023-05-17T23:59:36.787Z,102094.22
